sensor_id;sensor_type;location;lat;lon;timestamp;pressure;altitude;pressure_sealevel;temperature;humidity
75617;BME280;64200;55.426;37.758;2023-03-01T00:00:04;98461.00;;;-3.43;49.27
75617;BME280;64200;55.426;37.758;2023-03-01T00:05:05;98452.88;;;-3.50;49.34
75617;BME280;64200;55.426;37.758;2023-03-01T00:10:08;98439.75;;;-3.66;49.47
75617;BME280;64200;55.426;37.758;2023-03-01T00:15:08;98446.78;;;-3.68;49.86
75617;BME280;64200;55.426;37.758;2023-03-01T00:20:09;98443.69;;;-3.74;49.63
75617;BME280;64200;55.426;37.758;2023-03-01T00:25:10;98438.38;;;-3.92;49.71
75617;BME280;64200;55.426;37.758;2023-03-01T00:30:11;98441.09;;;-3.92;50.05
75617;BME280;64200;55.426;37.758;2023-03-01T00:35:11;98444.22;;;-3.97;50.28
75617;BME280;64200;55.426;37.758;2023-03-01T00:40:12;98452.78;;;-3.95;50.21
75617;BME280;64200;55.426;37.758;2023-03-01T00:45:12;98447.78;;;-4.08;50.53
75617;BME280;64200;55.426;37.758;2023-03-01T00:50:13;98450.50;;;-4.08;50.76
75617;BME280;64200;55.426;37.758;2023-03-01T00:55:14;98443.88;;;-4.10;50.86
75617;BME280;64200;55.426;37.758;2023-03-01T01:00:15;98442.78;;;-4.20;51.08
75617;BME280;64200;55.426;37.758;2023-03-01T01:05:15;98437.75;;;-4.29;51.09
75617;BME280;64200;55.426;37.758;2023-03-01T01:10:21;98438.53;;;-4.28;51.52
75617;BME280;64200;55.426;37.758;2023-03-01T01:15:21;98443.63;;;-4.37;51.47
75617;BME280;64200;55.426;37.758;2023-03-01T01:20:21;98436.66;;;-4.49;51.36
75617;BME280;64200;55.426;37.758;2023-03-01T01:25:22;98429.69;;;-4.54;51.61
75617;BME280;64200;55.426;37.758;2023-03-01T01:30:25;98441.38;;;-4.57;51.56
75617;BME280;64200;55.426;37.758;2023-03-01T01:35:25;98444.88;;;-4.60;51.74
75617;BME280;64200;55.426;37.758;2023-03-01T01:40:25;98434.00;;;-4.71;52.11
75617;BME280;64200;55.426;37.758;2023-03-01T01:45:32;98436.75;;;-4.74;51.96
75617;BME280;64200;55.426;37.758;2023-03-01T01:50:35;98427.03;;;-4.72;52.07
75617;BME280;64200;55.426;37.758;2023-03-01T01:55:42;98427.03;;;-4.79;52.22
75617;BME280;64200;55.426;37.758;2023-03-01T02:00:43;98428.97;;;-4.76;51.95
75617;BME280;64200;55.426;37.758;2023-03-01T02:05:57;98439.09;;;-4.84;52.39
75617;BME280;64200;55.426;37.758;2023-03-01T02:11:01;98434.44;;;-4.87;52.73
75617;BME280;64200;55.426;37.758;2023-03-01T02:16:08;98437.16;;;-4.83;52.82
75617;BME280;64200;55.426;37.758;2023-03-01T02:21:30;98435.22;;;-4.94;52.42
75617;BME280;64200;55.426;37.758;2023-03-01T02:26:45;98434.84;;;-4.99;52.98
75617;BME280;64200;55.426;37.758;2023-03-01T02:31:48;98430.56;;;-5.04;52.99
75617;BME280;64200;55.426;37.758;2023-03-01T02:41:57;98436.03;;;-5.00;53.21
75617;BME280;64200;55.426;37.758;2023-03-01T02:47:01;98439.88;;;-4.98;53.75
75617;BME280;64200;55.426;37.758;2023-03-01T02:57:33;98432.56;;;-5.30;54.04
75617;BME280;64200;55.426;37.758;2023-03-01T03:02:34;98445.75;;;-5.17;54.37
75617;BME280;64200;55.426;37.758;2023-03-01T03:07:41;98445.75;;;-5.17;54.82
75617;BME280;64200;55.426;37.758;2023-03-01T03:12:42;98436.03;;;-5.18;54.33
75617;BME280;64200;55.426;37.758;2023-03-01T03:17:43;98452.34;;;-5.29;54.38
75617;BME280;64200;55.426;37.758;2023-03-01T03:22:48;98446.53;;;-5.35;54.77
75617;BME280;64200;55.426;37.758;2023-03-01T03:27:50;98446.13;;;-5.40;54.92
75617;BME280;64200;55.426;37.758;2023-03-01T03:32:57;98450.41;;;-5.50;54.96
75617;BME280;64200;55.426;37.758;2023-03-01T03:38:00;98450.41;;;-5.57;55.49
75617;BME280;64200;55.426;37.758;2023-03-01T03:43:06;98447.28;;;-5.63;55.82
75617;BME280;64200;55.426;37.758;2023-03-01T03:48:08;98456.59;;;-5.50;55.84
75617;BME280;64200;55.426;37.758;2023-03-01T03:53:11;98450.41;;;-5.47;56.18
75617;BME280;64200;55.426;37.758;2023-03-01T03:58:12;98449.63;;;-5.54;56.09
75617;BME280;64200;55.426;37.758;2023-03-01T04:03:14;98452.72;;;-5.63;56.46
75617;BME280;64200;55.426;37.758;2023-03-01T04:08:15;98460.09;;;-5.60;55.77
75617;BME280;64200;55.426;37.758;2023-03-01T04:13:20;98464.72;;;-5.78;56.47
75617;BME280;64200;55.426;37.758;2023-03-01T04:18:23;98455.78;;;-5.83;56.22
75617;BME280;64200;55.426;37.758;2023-03-01T04:23:25;98466.66;;;-5.75;56.79
75617;BME280;64200;55.426;37.758;2023-03-01T04:28:30;98469.75;;;-5.80;56.37
75617;BME280;64200;55.426;37.758;2023-03-01T04:33:31;98473.66;;;-5.82;56.68
75617;BME280;64200;55.426;37.758;2023-03-01T04:38:31;98489.91;;;-5.89;57.14
75617;BME280;64200;55.426;37.758;2023-03-01T04:43:32;98485.66;;;-5.83;57.29
75617;BME280;64200;55.426;37.758;2023-03-01T04:48:35;98477.91;;;-5.73;57.56
75617;BME280;64200;55.426;37.758;2023-03-01T04:53:36;98489.19;;;-5.68;57.46
75617;BME280;64200;55.426;37.758;2023-03-01T04:58:37;98493.88;;;-5.61;57.02
75617;BME280;64200;55.426;37.758;2023-03-01T05:03:37;98503.19;;;-5.55;57.20
75617;BME280;64200;55.426;37.758;2023-03-01T05:08:39;98491.16;;;-5.47;57.12
75617;BME280;64200;55.426;37.758;2023-03-01T05:13:40;98498.16;;;-5.35;56.96
75617;BME280;64200;55.426;37.758;2023-03-01T05:18:40;98502.44;;;-5.26;57.49
75617;BME280;64200;55.426;37.758;2023-03-01T05:23:41;98504.38;;;-5.13;57.25
75617;BME280;64200;55.426;37.758;2023-03-01T05:28:42;98504.00;;;-4.97;56.72
75617;BME280;64200;55.426;37.758;2023-03-01T05:33:42;98498.94;;;-4.91;56.81
75617;BME280;64200;55.426;37.758;2023-03-01T05:38:43;98506.31;;;-4.84;56.81
75617;BME280;64200;55.426;37.758;2023-03-01T05:43:44;98524.56;;;-4.74;56.83
75617;BME280;64200;55.426;37.758;2023-03-01T05:48:45;98520.72;;;-4.84;56.63
75617;BME280;64200;55.426;37.758;2023-03-01T05:53:45;98529.22;;;-4.67;56.54
75617;BME280;64200;55.426;37.758;2023-03-01T05:58:48;98532.31;;;-4.44;56.20
75617;BME280;64200;55.426;37.758;2023-03-01T06:03:48;98541.53;;;-4.05;56.77
75617;BME280;64200;55.426;37.758;2023-03-01T06:08:48;98541.22;;;-3.40;54.19
75617;BME280;64200;55.426;37.758;2023-03-01T06:13:49;98549.56;;;-2.57;54.33
75617;BME280;64200;55.426;37.758;2023-03-01T06:18:50;98548.16;;;-1.65;52.79
75617;BME280;64200;55.426;37.758;2023-03-01T06:23:50;98565.47;;;-1.14;49.71
75617;BME280;64200;55.426;37.758;2023-03-01T06:28:52;98562.91;;;-1.55;50.70
75617;BME280;64200;55.426;37.758;2023-03-01T06:33:52;98543.16;;;-1.70;50.23
75617;BME280;64200;55.426;37.758;2023-03-01T06:38:53;98557.47;;;-1.59;50.07
75617;BME280;64200;55.426;37.758;2023-03-01T06:43:53;98565.28;;;-1.92;49.51
75617;BME280;64200;55.426;37.758;2023-03-01T06:48:54;98561.97;;;-2.10;50.51
75617;BME280;64200;55.426;37.758;2023-03-01T06:53:55;98564.34;;;-2.16;49.81
75617;BME280;64200;55.426;37.758;2023-03-01T06:58:55;98575.78;;;-2.25;49.25
75617;BME280;64200;55.426;37.758;2023-03-01T07:03:56;98581.47;;;-2.08;49.79
75617;BME280;64200;55.426;37.758;2023-03-01T07:08:57;98580.41;;;-1.84;50.63
75617;BME280;64200;55.426;37.758;2023-03-01T07:13:58;98581.66;;;-1.27;49.95
75617;BME280;64200;55.426;37.758;2023-03-01T07:19:00;98589.47;;;-0.27;48.25
75617;BME280;64200;55.426;37.758;2023-03-01T07:24:00;98588.31;;;-0.49;46.94
75617;BME280;64200;55.426;37.758;2023-03-01T07:29:03;98597.72;;;0.37;47.63
75617;BME280;64200;55.426;37.758;2023-03-01T07:34:04;98586.84;;;-0.10;44.17
75617;BME280;64200;55.426;37.758;2023-03-01T07:39:05;98603.44;;;0.03;47.08
75617;BME280;64200;55.426;37.758;2023-03-01T07:44:05;98601.50;;;0.03;45.42
75617;BME280;64200;55.426;37.758;2023-03-01T07:49:06;98588.53;;;0.24;44.43
75617;BME280;64200;55.426;37.758;2023-03-01T07:54:09;98613.13;;;0.87;44.49
75617;BME280;64200;55.426;37.758;2023-03-01T07:59:12;98629.56;;;2.91;43.32
75617;BME280;64200;55.426;37.758;2023-03-01T08:04:13;98629.78;;;4.31;38.02
75617;BME280;64200;55.426;37.758;2023-03-01T08:09:13;98636.63;;;5.65;38.01
75617;BME280;64200;55.426;37.758;2023-03-01T08:14:14;98632.44;;;6.47;35.60
75617;BME280;64200;55.426;37.758;2023-03-01T08:19:15;98619.50;;;7.48;33.10
75617;BME280;64200;55.426;37.758;2023-03-01T08:24:15;98656.25;;;8.39;31.58
75617;BME280;64200;55.426;37.758;2023-03-01T08:29:16;98665.91;;;8.98;29.09
75617;BME280;64200;55.426;37.758;2023-03-01T08:34:17;98650.38;;;9.72;28.19
75617;BME280;64200;55.426;37.758;2023-03-01T08:39:19;98659.81;;;9.44;28.39
75617;BME280;64200;55.426;37.758;2023-03-01T08:44:20;98651.63;;;9.91;28.19
75617;BME280;64200;55.426;37.758;2023-03-01T08:49:30;98654.03;;;11.18;28.15
75617;BME280;64200;55.426;37.758;2023-03-01T08:54:32;98654.06;;;11.50;25.23
75617;BME280;64200;55.426;37.758;2023-03-01T08:59:35;98657.44;;;12.92;25.84
75617;BME280;64200;55.426;37.758;2023-03-01T09:04:37;98650.31;;;12.91;24.91
75617;BME280;64200;55.426;37.758;2023-03-01T09:09:38;98661.81;;;13.32;23.85
75617;BME280;64200;55.426;37.758;2023-03-01T09:14:38;98662.78;;;12.84;23.77
75617;BME280;64200;55.426;37.758;2023-03-01T09:19:39;98670.88;;;14.77;22.40
75617;BME280;64200;55.426;37.758;2023-03-01T09:24:39;98664.31;;;15.04;21.79
75617;BME280;64200;55.426;37.758;2023-03-01T09:29:40;98667.31;;;15.73;20.71
75617;BME280;64200;55.426;37.758;2023-03-01T09:34:41;98660.09;;;12.35;22.73
75617;BME280;64200;55.426;37.758;2023-03-01T09:40:01;98654.72;;;9.58;24.37
75617;BME280;64200;55.426;37.758;2023-03-01T09:45:06;98665.03;;;10.96;24.53
75617;BME280;64200;55.426;37.758;2023-03-01T09:50:16;98659.50;;;12.08;23.54
75617;BME280;64200;55.426;37.758;2023-03-01T09:55:44;98673.81;;;14.43;24.83
75617;BME280;64200;55.426;37.758;2023-03-01T10:00:47;98682.72;;;17.95;19.19
75617;BME280;64200;55.426;37.758;2023-03-01T10:06:09;98674.41;;;20.69;17.03
75617;BME280;64200;55.426;37.758;2023-03-01T10:11:20;98675.06;;;16.16;18.78
75617;BME280;64200;55.426;37.758;2023-03-01T10:16:28;98671.72;;;13.79;19.88
75617;BME280;64200;55.426;37.758;2023-03-01T10:21:32;98684.50;;;15.33;19.32
75617;BME280;64200;55.426;37.758;2023-03-01T10:31:56;98674.31;;;9.84;23.07
75617;BME280;64200;55.426;37.758;2023-03-01T10:37:17;98687.06;;;7.69;24.93
75617;BME280;64200;55.426;37.758;2023-03-01T10:42:27;98685.81;;;8.27;26.79
75617;BME280;64200;55.426;37.758;2023-03-01T10:47:28;98692.09;;;8.76;25.10
75617;BME280;64200;55.426;37.758;2023-03-01T10:52:37;98694.13;;;6.47;27.57
75617;BME280;64200;55.426;37.758;2023-03-01T10:57:39;98695.31;;;4.52;30.24
75617;BME280;64200;55.426;37.758;2023-03-01T11:02:41;98699.69;;;3.93;31.62
75617;BME280;64200;55.426;37.758;2023-03-01T11:13:08;98708.63;;;13.09;26.16
75617;BME280;64200;55.426;37.758;2023-03-01T11:18:20;98702.78;;;16.94;20.90
75617;BME280;64200;55.426;37.758;2023-03-01T11:23:22;98707.94;;;18.94;16.19
75617;BME280;64200;55.426;37.758;2023-03-01T11:28:24;98715.63;;;17.08;16.81
75617;BME280;64200;55.426;37.758;2023-03-01T11:38:45;98700.50;;;8.43;24.41
75617;BME280;64200;55.426;37.758;2023-03-01T11:44:16;98702.25;;;8.79;25.45
75617;BME280;64200;55.426;37.758;2023-03-01T11:54:59;98721.41;;;13.67;25.67
75617;BME280;64200;55.426;37.758;2023-03-01T12:33:15;98744.34;;;13.43;18.25
75617;BME280;64200;55.426;37.758;2023-03-01T12:38:36;98734.41;;;10.41;21.16
75617;BME280;64200;55.426;37.758;2023-03-01T12:54:15;98724.13;;;6.58;26.50
75617;BME280;64200;55.426;37.758;2023-03-01T13:14:54;98698.88;;;2.60;32.83
75617;BME280;64200;55.426;37.758;2023-03-01T13:19:58;98700.38;;;2.77;33.08
75617;BME280;64200;55.426;37.758;2023-03-01T13:25:15;98698.34;;;2.36;33.75
75617;BME280;64200;55.426;37.758;2023-03-01T13:35:44;98684.03;;;1.79;35.63
75617;BME280;64200;55.426;37.758;2023-03-01T13:45:51;98697.16;;;1.21;36.64
75617;BME280;64200;55.426;37.758;2023-03-01T13:51:11;98699.81;;;1.05;36.74
75617;BME280;64200;55.426;37.758;2023-03-01T13:56:17;98692.97;;;0.57;36.89
75617;BME280;64200;55.426;37.758;2023-03-01T14:01:24;98695.25;;;0.38;38.30
75617;BME280;64200;55.426;37.758;2023-03-01T14:06:26;98688.53;;;0.19;38.68
75617;BME280;64200;55.426;37.758;2023-03-01T14:17:39;98690.00;;;0.04;39.62
75617;BME280;64200;55.426;37.758;2023-03-01T14:22:42;98672.34;;;-0.43;40.76
75617;BME280;64200;55.426;37.758;2023-03-01T14:28:04;98683.88;;;-0.82;41.73
75617;BME280;64200;55.426;37.758;2023-03-01T14:33:22;98692.09;;;-0.82;40.83
75617;BME280;64200;55.426;37.758;2023-03-01T14:38:32;98680.88;;;-0.92;40.87
75617;BME280;64200;55.426;37.758;2023-03-01T14:43:37;98686.72;;;-0.90;41.62
75617;BME280;64200;55.426;37.758;2023-03-01T14:48:39;98684.19;;;-0.77;41.03
75617;BME280;64200;55.426;37.758;2023-03-01T14:53:41;98670.28;;;-0.62;40.80
75617;BME280;64200;55.426;37.758;2023-03-01T14:58:43;98664.34;;;-0.57;40.80
75617;BME280;64200;55.426;37.758;2023-03-01T15:03:46;98671.44;;;-0.36;40.69
75617;BME280;64200;55.426;37.758;2023-03-01T15:08:51;98670.56;;;-0.53;41.34
75617;BME280;64200;55.426;37.758;2023-03-01T15:13:53;98671.78;;;-0.58;40.98
75617;BME280;64200;55.426;37.758;2023-03-01T15:19:05;98668.34;;;-0.62;41.54
75617;BME280;64200;55.426;37.758;2023-03-01T15:29:22;98667.59;;;-0.66;42.47
75617;BME280;64200;55.426;37.758;2023-03-01T15:34:29;98674.84;;;-0.79;43.42
75617;BME280;64200;55.426;37.758;2023-03-01T15:44:40;98677.25;;;-0.85;44.47
75617;BME280;64200;55.426;37.758;2023-03-01T15:49:45;98666.97;;;-0.77;44.68
75617;BME280;64200;55.426;37.758;2023-03-01T15:54:46;98676.81;;;-0.80;44.96
75617;BME280;64200;55.426;37.758;2023-03-01T15:59:47;98667.44;;;-0.82;45.57
75617;BME280;64200;55.426;37.758;2023-03-01T16:04:48;98661.66;;;-1.15;46.31
75617;BME280;64200;55.426;37.758;2023-03-01T16:09:51;98661.06;;;-1.30;48.51
75617;BME280;64200;55.426;37.758;2023-03-01T16:14:54;98661.72;;;-1.22;48.09
75617;BME280;64200;55.426;37.758;2023-03-01T16:19:57;98670.69;;;-1.22;48.49
75617;BME280;64200;55.426;37.758;2023-03-01T16:24:58;98666.97;;;-1.35;49.49
75617;BME280;64200;55.426;37.758;2023-03-01T16:29:59;98671.06;;;-1.20;48.64
75617;BME280;64200;55.426;37.758;2023-03-01T16:35:00;98669.97;;;-1.26;49.88
75617;BME280;64200;55.426;37.758;2023-03-01T16:40:02;98668.28;;;-1.16;48.80
75617;BME280;64200;55.426;37.758;2023-03-01T16:45:05;98666.13;;;-1.32;50.64
75617;BME280;64200;55.426;37.758;2023-03-01T16:50:09;98663.06;;;-1.38;49.98
75617;BME280;64200;55.426;37.758;2023-03-01T16:55:10;98661.38;;;-1.59;51.25
75617;BME280;64200;55.426;37.758;2023-03-01T17:00:12;98660.13;;;-1.51;50.68
75617;BME280;64200;55.426;37.758;2023-03-01T17:05:13;98638.91;;;-1.43;51.12
75617;BME280;64200;55.426;37.758;2023-03-01T17:10:15;98652.22;;;-1.45;51.46
75617;BME280;64200;55.426;37.758;2023-03-01T17:15:16;98643.31;;;-1.49;51.36
75617;BME280;64200;55.426;37.758;2023-03-01T17:20:17;98631.44;;;-1.70;52.11
75617;BME280;64200;55.426;37.758;2023-03-01T17:25:18;98640.81;;;-1.71;52.25
75617;BME280;64200;55.426;37.758;2023-03-01T17:30:19;98624.53;;;-1.85;52.52
75617;BME280;64200;55.426;37.758;2023-03-01T17:35:20;98628.44;;;-1.83;52.99
75617;BME280;64200;55.426;37.758;2023-03-01T17:40:21;98631.25;;;-1.90;53.44
75617;BME280;64200;55.426;37.758;2023-03-01T17:45:22;98621.25;;;-2.04;54.30
75617;BME280;64200;55.426;37.758;2023-03-01T17:50:23;98619.56;;;-1.94;54.29
75617;BME280;64200;55.426;37.758;2023-03-01T17:55:24;98610.88;;;-1.85;55.15
75617;BME280;64200;55.426;37.758;2023-03-01T18:00:25;98603.09;;;-1.87;53.92
75617;BME280;64200;55.426;37.758;2023-03-01T18:05:26;98600.06;;;-1.96;54.87
75617;BME280;64200;55.426;37.758;2023-03-01T18:10:27;98614.03;;;-1.87;54.97
75617;BME280;64200;55.426;37.758;2023-03-01T18:15:28;98601.84;;;-1.82;54.20
75617;BME280;64200;55.426;37.758;2023-03-01T18:20:29;98599.38;;;-2.04;54.64
75617;BME280;64200;55.426;37.758;2023-03-01T18:25:32;98598.22;;;-2.03;54.18
75617;BME280;64200;55.426;37.758;2023-03-01T18:30:32;98589.50;;;-1.94;54.29
75617;BME280;64200;55.426;37.758;2023-03-01T18:35:37;98591.03;;;-1.89;53.43
75617;BME280;64200;55.426;37.758;2023-03-01T18:40:38;98578.66;;;-2.01;53.96
75617;BME280;64200;55.426;37.758;2023-03-01T18:45:39;98581.06;;;-2.07;54.19
75617;BME280;64200;55.426;37.758;2023-03-01T18:50:41;98578.97;;;-1.96;54.19
75617;BME280;64200;55.426;37.758;2023-03-01T18:55:42;98579.63;;;-1.84;53.34
75617;BME280;64200;55.426;37.758;2023-03-01T19:00:42;98571.72;;;-1.75;53.45
75617;BME280;64200;55.426;37.758;2023-03-01T19:05:45;98567.69;;;-1.98;53.62
75617;BME280;64200;55.426;37.758;2023-03-01T19:10:46;98582.19;;;-2.04;53.44
75617;BME280;64200;55.426;37.758;2023-03-01T19:15:46;98576.34;;;-2.03;53.74
75617;BME280;64200;55.426;37.758;2023-03-01T19:20:47;98548.22;;;-2.03;53.24
75617;BME280;64200;55.426;37.758;2023-03-01T19:25:47;98559.84;;;-1.96;53.08
75617;BME280;64200;55.426;37.758;2023-03-01T19:30:49;98550.19;;;-2.04;53.68
75617;BME280;64200;55.426;37.758;2023-03-01T19:35:49;98554.03;;;-1.98;53.11
75617;BME280;64200;55.426;37.758;2023-03-01T19:40:50;98554.88;;;-2.04;53.44
75617;BME280;64200;55.426;37.758;2023-03-01T19:45:52;98535.44;;;-2.10;53.32
75617;BME280;64200;55.426;37.758;2023-03-01T19:50:54;98553.63;;;-1.96;53.79
75617;BME280;64200;55.426;37.758;2023-03-01T19:55:59;98559.00;;;-1.89;53.84
75617;BME280;64200;55.426;37.758;2023-03-01T20:00:59;98553.81;;;-1.80;53.60
75617;BME280;64200;55.426;37.758;2023-03-01T20:06:08;98546.91;;;-1.88;53.65
75617;BME280;64200;55.426;37.758;2023-03-01T20:11:11;98536.31;;;-1.86;53.67
75617;BME280;64200;55.426;37.758;2023-03-01T20:16:17;98539.47;;;-1.87;54.09
75617;BME280;64200;55.426;37.758;2023-03-01T20:21:18;98539.00;;;-1.82;54.13
75617;BME280;64200;55.426;37.758;2023-03-01T20:26:21;98535.97;;;-1.88;53.80
75617;BME280;64200;55.426;37.758;2023-03-01T20:31:23;98534.41;;;-1.89;54.81
75617;BME280;64200;55.426;37.758;2023-03-01T20:36:28;98518.44;;;-1.94;54.02
75617;BME280;64200;55.426;37.758;2023-03-01T20:41:30;98522.28;;;-1.88;54.71
75617;BME280;64200;55.426;37.758;2023-03-01T20:46:31;98523.31;;;-1.78;54.57
75617;BME280;64200;55.426;37.758;2023-03-01T20:51:32;98519.34;;;-1.70;54.55
75617;BME280;64200;55.426;37.758;2023-03-01T20:56:33;98508.84;;;-1.75;55.05
75617;BME280;64200;55.426;37.758;2023-03-01T21:01:34;98514.28;;;-1.71;55.46
75617;BME280;64200;55.426;37.758;2023-03-01T21:06:35;98509.97;;;-1.72;55.25
75617;BME280;64200;55.426;37.758;2023-03-01T21:23:46;98493.75;;;-1.87;56.49
75617;BME280;64200;55.426;37.758;2023-03-01T21:28:48;98509.88;;;-1.96;57.21
75617;BME280;64200;55.426;37.758;2023-03-01T21:33:52;98496.69;;;-2.01;57.50
75617;BME280;64200;55.426;37.758;2023-03-01T21:38:53;98507.72;;;-2.12;59.05
75617;BME280;64200;55.426;37.758;2023-03-01T21:43:56;98507.84;;;-2.23;59.69
75617;BME280;64200;55.426;37.758;2023-03-01T21:48:57;98508.22;;;-2.21;59.63
75617;BME280;64200;55.426;37.758;2023-03-01T21:53:58;98504.03;;;-2.29;60.11
75617;BME280;64200;55.426;37.758;2023-03-01T21:59:00;98499.63;;;-2.19;60.88
75617;BME280;64200;55.426;37.758;2023-03-01T22:04:01;98501.53;;;-2.16;60.37
75617;BME280;64200;55.426;37.758;2023-03-01T22:09:05;98509.53;;;-1.98;59.69
75617;BME280;64200;55.426;37.758;2023-03-01T22:14:07;98502.84;;;-1.93;59.91
75617;BME280;64200;55.426;37.758;2023-03-01T22:19:08;98512.53;;;-1.89;59.44
75617;BME280;64200;55.426;37.758;2023-03-01T22:24:09;98512.03;;;-1.80;59.71
75617;BME280;64200;55.426;37.758;2023-03-01T22:29:16;98507.72;;;-1.78;59.24
75617;BME280;64200;55.426;37.758;2023-03-01T22:34:17;98507.81;;;-1.85;59.17
75617;BME280;64200;55.426;37.758;2023-03-01T22:39:20;98503.94;;;-1.87;59.43
75617;BME280;64200;55.426;37.758;2023-03-01T22:44:21;98503.13;;;-2.19;60.44
75617;BME280;64200;55.426;37.758;2023-03-01T22:49:23;98506.59;;;-2.15;60.38
75617;BME280;64200;55.426;37.758;2023-03-01T22:54:23;98514.88;;;-2.22;60.75
75617;BME280;64200;55.426;37.758;2023-03-01T22:59:24;98502.13;;;-2.36;61.00
75617;BME280;64200;55.426;37.758;2023-03-01T23:04:24;98520.38;;;-2.25;61.18
75617;BME280;64200;55.426;37.758;2023-03-01T23:14:30;98515.31;;;-2.27;60.94
75617;BME280;64200;55.426;37.758;2023-03-01T23:19:30;98518.31;;;-2.14;61.29
75617;BME280;64200;55.426;37.758;2023-03-01T23:24:32;98512.75;;;-2.07;60.91
75617;BME280;64200;55.426;37.758;2023-03-01T23:29:33;98530.59;;;-1.99;61.57
75617;BME280;64200;55.426;37.758;2023-03-01T23:34:33;98525.53;;;-1.97;60.93
75617;BME280;64200;55.426;37.758;2023-03-01T23:39:34;98531.44;;;-2.02;61.27
75617;BME280;64200;55.426;37.758;2023-03-01T23:44:34;98515.00;;;-1.98;60.86
75617;BME280;64200;55.426;37.758;2023-03-01T23:49:38;98491.53;;;-1.96;61.12
75617;BME280;64200;55.426;37.758;2023-03-01T23:54:38;98517.28;;;-1.93;61.12
75617;BME280;64200;55.426;37.758;2023-03-01T23:59:39;98515.75;;;-1.98;60.56
